Time;durP1;ratioP1;P1;durP2;ratioP2;P2;SDS_P1;SDS_P2;PMS_P1;PMS_P2;Temp;Humidity;BMP_temperature;BMP_pressure;BME280_temperature;BME280_humidity;BME280_pressure;Samples;Min_cycle;Max_cycle;Signal;HPM_P1;HPM_P2
2021/10/08 00:01:28;;;;;;;11.90;6.47;;;9.40;99.90;;;;;;5086359;28;20419;-74
2021/10/08 00:03:55;;;;;;;12.57;6.55;;;9.30;99.90;;;;;;5085861;28;20046;-74
2021/10/08 00:06:21;;;;;;;12.32;5.78;;;9.30;99.90;;;;;;5086946;28;20024;-72
2021/10/08 00:08:47;;;;;;;10.68;5.70;;;9.30;99.90;;;;;;5084935;28;20119;-72
2021/10/08 00:11:13;;;;;;;9.88;5.63;;;9.30;99.90;;;;;;5084975;28;20457;-73
2021/10/08 00:13:39;;;;;;;14.63;6.30;;;9.20;99.90;;;;;;5086315;28;20056;-72
2021/10/08 00:16:05;;;;;;;14.20;5.45;;;9.20;99.90;;;;;;5086207;28;20028;-73
2021/10/08 00:18:32;;;;;;;12.45;6.47;;;9.20;99.90;;;;;;5085892;28;20074;-74
2021/10/08 00:20:59;;;;;;;13.18;6.15;;;9.20;99.90;;;;;;5086398;28;20106;-73
2021/10/08 00:23:25;;;;;;;15.60;6.22;;;9.20;99.90;;;;;;5086071;28;20082;-73
2021/10/08 00:25:50;;;;;;;13.73;6.05;;;9.20;99.90;;;;;;5084880;28;20454;-73
2021/10/08 00:28:16;;;;;;;10.18;5.50;;;9.20;99.90;;;;;;5086072;28;20029;-72
2021/10/08 00:30:42;;;;;;;12.13;5.97;;;9.20;99.90;;;;;;5084514;28;20032;-72
2021/10/08 00:33:08;;;;;;;11.95;5.63;;;9.10;99.90;;;;;;5085869;28;20036;-72
2021/10/08 00:35:33;;;;;;;10.73;5.28;;;9.10;99.90;;;;;;5086100;28;20037;-72
2021/10/08 00:38:00;;;;;;;9.93;5.60;;;9.10;99.90;;;;;;5085404;28;20021;-73
2021/10/08 00:40:25;;;;;;;10.52;5.00;;;9.10;99.90;;;;;;5085954;28;20020;-73
2021/10/08 00:42:52;;;;;;;9.93;5.72;;;9.00;99.90;;;;;;5086138;28;20024;-72
2021/10/08 00:45:17;;;;;;;10.50;6.18;;;9.00;99.90;;;;;;5085759;28;20111;-73
2021/10/08 00:47:43;;;;;;;10.65;5.47;;;9.00;99.90;;;;;;5084858;28;20648;-73
2021/10/08 00:50:10;;;;;;;9.15;5.10;;;9.00;99.90;;;;;;5085784;28;20032;-72
2021/10/08 00:52:36;;;;;;;11.82;5.55;;;9.00;99.90;;;;;;5085426;28;20020;-72
2021/10/08 00:55:03;;;;;;;9.00;4.32;;;9.00;99.90;;;;;;5085616;28;20056;-72
2021/10/08 00:57:29;;;;;;;11.38;5.43;;;9.00;99.90;;;;;;5085538;28;20025;-74
2021/10/08 00:59:55;;;;;;;11.68;5.10;;;9.00;99.90;;;;;;5085498;28;20028;-74
2021/10/08 01:02:24;;;;;;;9.23;5.07;;;8.90;99.90;;;;;;5085514;28;20043;-73
2021/10/08 01:04:56;;;;;;;10.30;5.28;;;8.90;99.90;;;;;;5085359;28;20080;-73
2021/10/08 01:07:25;;;;;;;13.68;5.75;;;8.90;99.90;;;;;;5084066;28;20127;-73
2021/10/08 01:09:51;;;;;;;13.10;5.30;;;8.80;99.90;;;;;;5084316;28;20028;-73
2021/10/08 01:12:17;;;;;;;10.00;5.10;;;8.80;99.90;;;;;;5083672;28;20043;-73
2021/10/08 01:14:43;;;;;;;11.07;5.88;;;8.80;99.90;;;;;;5084653;28;20048;-73
2021/10/08 01:17:13;;;;;;;11.13;5.60;;;8.80;99.90;;;;;;5082230;28;20020;-72
2021/10/08 01:19:39;;;;;;;10.55;5.10;;;8.80;99.90;;;;;;5064805;28;20039;-72
2021/10/08 01:22:04;;;;;;;11.82;5.40;;;8.80;99.90;;;;;;5076506;28;20028;-73
2021/10/08 01:24:30;;;;;;;12.63;6.10;;;8.70;99.90;;;;;;5084912;28;20074;-74
2021/10/08 01:26:55;;;;;;;14.02;5.43;;;8.70;99.90;;;;;;5083866;28;20549;-73
2021/10/08 01:29:21;;;;;;;10.65;4.53;;;8.80;99.90;;;;;;5074248;28;20033;-73
2021/10/08 01:31:47;;;;;;;12.32;4.85;;;8.70;99.90;;;;;;5063748;28;20046;-73
2021/10/08 01:34:12;;;;;;;18.55;6.22;;;8.70;99.90;;;;;;5064604;28;20037;-74
2021/10/08 01:36:38;;;;;;;9.48;4.85;;;8.70;99.90;;;;;;5064472;28;20104;-73
2021/10/08 01:39:03;;;;;;;11.25;5.25;;;8.70;99.90;;;;;;5064620;28;20041;-73
2021/10/08 01:41:29;;;;;;;9.35;5.00;;;8.60;99.90;;;;;;5064316;28;20081;-73
2021/10/08 01:43:55;;;;;;;12.45;5.47;;;8.60;99.90;;;;;;5064116;28;20051;-75
2021/10/08 01:46:21;;;;;;;8.00;4.38;;;8.60;99.90;;;;;;5064950;28;20054;-73
2021/10/08 01:48:46;;;;;;;13.23;5.15;;;8.60;99.90;;;;;;5063683;28;20068;-72
2021/10/08 01:51:12;;;;;;;11.75;5.53;;;8.60;99.90;;;;;;5064714;28;20032;-73
2021/10/08 01:53:37;;;;;;;8.88;4.90;;;8.60;99.90;;;;;;5064106;28;20055;-72
2021/10/08 01:56:03;;;;;;;11.15;5.70;;;8.60;99.90;;;;;;5063202;28;20036;-74
2021/10/08 01:58:29;;;;;;;23.95;6.70;;;8.60;99.90;;;;;;5064496;28;20021;-74
2021/10/08 02:00:54;;;;;;;11.50;5.65;;;8.60;99.90;;;;;;5064008;28;20056;-73
2021/10/08 02:03:20;;;;;;;20.45;6.85;;;8.50;99.90;;;;;;5064517;28;20052;-73
2021/10/08 02:05:46;;;;;;;22.83;6.70;;;8.50;99.90;;;;;;5064376;28;20084;-73
2021/10/08 02:08:11;;;;;;;11.18;5.93;;;8.50;99.90;;;;;;5063674;28;20047;-73
2021/10/08 02:10:37;;;;;;;11.25;5.88;;;8.50;99.90;;;;;;5064205;28;20046;-72
2021/10/08 02:13:03;;;;;;;11.13;5.45;;;8.50;99.90;;;;;;5064140;28;20076;-72
2021/10/08 02:15:29;;;;;;;12.50;5.63;;;8.50;99.90;;;;;;5063867;28;20519;-73
2021/10/08 02:17:55;;;;;;;11.18;5.60;;;8.50;99.90;;;;;;5064001;28;20025;-73
2021/10/08 02:20:20;;;;;;;12.38;5.75;;;8.50;99.90;;;;;;5064381;28;20025;-73
2021/10/08 02:22:47;;;;;;;13.50;5.68;;;8.50;99.90;;;;;;5064006;28;20036;-72
2021/10/08 02:25:13;;;;;;;13.50;7.03;;;8.50;99.90;;;;;;5063803;28;20050;-72
2021/10/08 02:27:39;;;;;;;18.20;6.55;;;8.50;99.90;;;;;;5062900;28;20025;-72
2021/10/08 02:30:06;;;;;;;13.35;6.18;;;8.50;99.90;;;;;;5063637;28;20106;-73
2021/10/08 02:32:31;;;;;;;12.40;6.15;;;8.50;99.90;;;;;;5063838;28;20044;-73
2021/10/08 02:34:57;;;;;;;14.18;6.57;;;8.50;99.90;;;;;;5064156;28;20037;-73
2021/10/08 02:37:22;;;;;;;14.00;5.90;;;8.50;99.90;;;;;;5063974;28;20033;-74
2021/10/08 02:39:48;;;;;;;15.60;6.65;;;8.40;99.90;;;;;;5063778;28;20072;-73
2021/10/08 02:42:13;;;;;;;14.20;6.35;;;8.40;99.90;;;;;;5064226;28;20049;-72
2021/10/08 02:44:39;;;;;;;15.93;6.47;;;8.40;99.90;;;;;;5063651;28;20083;-73
2021/10/08 02:47:05;;;;;;;12.40;6.25;;;8.40;99.90;;;;;;5064076;28;20053;-72
2021/10/08 02:49:31;;;;;;;15.18;6.78;;;8.40;99.90;;;;;;5063505;28;20040;-73
2021/10/08 02:51:56;;;;;;;13.27;5.68;;;8.30;99.90;;;;;;5063877;28;20040;-73
2021/10/08 02:54:22;;;;;;;11.30;5.97;;;8.30;99.90;;;;;;5063707;28;20037;-73
2021/10/08 02:56:48;;;;;;;12.65;5.90;;;8.30;99.90;;;;;;5065033;28;20025;-73
2021/10/08 02:59:14;;;;;;;12.85;5.38;;;8.30;99.90;;;;;;5065780;28;20036;-72
2021/10/08 03:01:40;;;;;;;13.40;5.97;;;8.20;99.90;;;;;;5067354;28;20028;-73
2021/10/08 03:04:06;;;;;;;14.68;6.68;;;8.20;99.90;;;;;;5067899;28;20428;-74
2021/10/08 03:06:32;;;;;;;11.70;6.38;;;8.20;99.90;;;;;;5066810;28;20028;-74
2021/10/08 03:09:02;;;;;;;13.07;6.30;;;8.20;99.90;;;;;;5068004;28;20025;-73
2021/10/08 03:11:28;;;;;;;10.32;5.32;;;8.20;99.90;;;;;;5067411;28;20060;-74
2021/10/08 03:13:55;;;;;;;13.05;6.53;;;8.20;99.90;;;;;;5066739;28;20052;-73
2021/10/08 03:16:21;;;;;;;11.32;5.97;;;8.20;99.90;;;;;;5067905;28;20067;-72
2021/10/08 03:18:46;;;;;;;18.40;6.20;;;8.30;99.90;;;;;;5067427;28;20029;-73
2021/10/08 03:21:12;;;;;;;13.82;6.22;;;8.20;99.90;;;;;;5067012;28;20031;-72
2021/10/08 03:23:37;;;;;;;11.40;6.13;;;8.10;99.90;;;;;;5065873;28;20028;-73
2021/10/08 03:26:03;;;;;;;14.75;6.18;;;8.10;99.90;;;;;;5067378;28;20056;-73
2021/10/08 03:28:29;;;;;;;15.93;7.60;;;8.10;99.90;;;;;;5067399;28;20021;-74
2021/10/08 03:30:55;;;;;;;15.07;6.30;;;8.10;99.90;;;;;;5066268;28;20029;-75
2021/10/08 03:33:21;;;;;;;11.90;6.97;;;8.10;99.90;;;;;;5067249;28;20041;-72
2021/10/08 03:35:46;;;;;;;16.65;7.22;;;8.10;99.90;;;;;;5066730;28;20029;-73
2021/10/08 03:38:18;;;;;;;15.45;7.28;;;8.10;99.90;;;;;;5067236;28;20033;-72
2021/10/08 03:40:52;;;;;;;18.08;8.07;;;8.10;99.90;;;;;;5066371;28;20035;-73
2021/10/08 03:43:18;;;;;;;15.25;6.82;;;8.10;99.90;;;;;;5066883;28;20409;-73
2021/10/08 03:45:51;;;;;;;16.58;7.22;;;8.10;99.90;;;;;;5066863;28;20043;-73
2021/10/08 03:48:33;;;;;;;16.00;7.18;;;8.10;99.90;;;;;;5066601;28;20025;-73
2021/10/08 03:51:04;;;;;;;17.67;7.25;;;8.10;99.90;;;;;;5066891;28;20123;-73
2021/10/08 03:53:31;;;;;;;12.90;6.45;;;8.10;99.90;;;;;;5066699;28;20477;-73
2021/10/08 03:55:57;;;;;;;15.32;8.25;;;8.10;99.90;;;;;;5066257;28;20083;-73
2021/10/08 03:58:24;;;;;;;14.30;6.55;;;8.10;99.90;;;;;;5069191;28;20025;-73
2021/10/08 04:00:50;;;;;;;15.10;6.70;;;8.10;99.90;;;;;;5085287;28;20427;-72
2021/10/08 04:03:15;;;;;;;16.13;7.53;;;8.10;99.90;;;;;;5084915;28;20093;-72
2021/10/08 04:05:42;;;;;;;12.77;6.88;;;8.00;99.90;;;;;;5085086;28;20033;-72
2021/10/08 04:08:08;;;;;;;14.75;6.63;;;8.10;99.90;;;;;;5084413;28;20092;-73
2021/10/08 04:10:43;;;;;;;12.57;5.18;;;8.00;99.90;;;;;;5085933;28;20029;-73
2021/10/08 04:13:09;;;;;;;12.82;6.57;;;8.00;99.90;;;;;;5086476;28;20044;-73
2021/10/08 04:15:34;;;;;;;17.73;7.28;;;8.00;99.90;;;;;;5085908;28;20032;-72
2021/10/08 04:18:00;;;;;;;15.27;6.22;;;8.00;99.90;;;;;;5085026;28;20101;-73
2021/10/08 04:20:26;;;;;;;11.32;4.90;;;7.90;99.90;;;;;;5086095;28;20028;-72
2021/10/08 04:22:52;;;;;;;14.20;6.15;;;7.90;99.90;;;;;;5086431;28;20037;-72
2021/10/08 04:25:17;;;;;;;14.70;6.38;;;7.80;99.90;;;;;;5086067;28;20024;-72
2021/10/08 04:27:43;;;;;;;12.38;6.22;;;7.80;99.90;;;;;;5081106;28;20032;-72
2021/10/08 04:30:09;;;;;;;12.05;5.53;;;7.70;99.90;;;;;;5065611;28;20044;-72
2021/10/08 04:32:34;;;;;;;10.45;4.70;;;7.70;99.90;;;;;;5065934;28;20032;-73
2021/10/08 04:35:00;;;;;;;9.60;4.72;;;7.70;99.90;;;;;;5065731;28;20075;-72
2021/10/08 04:37:27;;;;;;;11.27;4.88;;;7.70;99.90;;;;;;5064353;28;20116;-74
2021/10/08 04:39:53;;;;;;;11.95;4.82;;;7.70;99.90;;;;;;5065881;28;20029;-74
2021/10/08 04:42:19;;;;;;;10.93;4.30;;;7.70;99.90;;;;;;5064576;28;20071;-72
2021/10/08 04:44:45;;;;;;;9.60;5.15;;;7.70;99.90;;;;;;5065201;28;20025;-72
2021/10/08 04:47:12;;;;;;;10.35;4.97;;;7.60;99.90;;;;;;5065925;28;20031;-72
2021/10/08 04:49:38;;;;;;;8.02;4.05;;;7.70;99.90;;;;;;5065345;28;20063;-72
2021/10/08 04:52:13;;;;;;;8.23;4.78;;;7.70;99.90;;;;;;5065568;28;20481;-72
2021/10/08 04:54:39;;;;;;;9.90;5.25;;;7.60;99.90;;;;;;5065483;28;20045;-73
2021/10/08 04:57:05;;;;;;;8.98;4.65;;;7.60;99.90;;;;;;5065309;28;20029;-73
2021/10/08 04:59:32;;;;;;;10.10;4.70;;;7.60;99.90;;;;;;5063805;28;20381;-73
2021/10/08 05:01:57;;;;;;;9.40;4.65;;;7.60;99.90;;;;;;5066900;28;20033;-73
2021/10/08 05:04:23;;;;;;;9.20;3.92;;;7.60;99.90;;;;;;5079992;28;20056;-74
2021/10/08 05:06:49;;;;;;;13.98;4.15;;;7.60;99.90;;;;;;5080671;28;20082;-72
2021/10/08 05:09:14;;;;;;;8.25;4.30;;;7.50;99.90;;;;;;5068107;28;20595;-73
2021/10/08 05:11:40;;;;;;;7.18;3.40;;;7.50;99.90;;;;;;5079386;28;20408;-72
2021/10/08 05:14:05;;;;;;;6.50;3.60;;;7.40;99.90;;;;;;5082579;28;20048;-73
2021/10/08 05:16:31;;;;;;;10.65;3.47;;;7.40;99.90;;;;;;5083864;28;20058;-73
2021/10/08 05:18:57;;;;;;;5.93;3.08;;;7.40;99.90;;;;;;5084014;28;20043;-73
2021/10/08 05:21:23;;;;;;;4.13;3.00;;;7.40;99.90;;;;;;5083373;28;20024;-72
2021/10/08 05:23:48;;;;;;;4.80;2.85;;;7.40;99.90;;;;;;5084592;28;20035;-71
2021/10/08 05:26:14;;;;;;;6.32;3.13;;;7.40;99.90;;;;;;5084211;28;20059;-70
2021/10/08 05:28:40;;;;;;;11.75;3.08;;;7.40;99.90;;;;;;5075878;28;20060;-71
2021/10/08 05:31:06;;;;;;;5.88;3.00;;;7.40;99.90;;;;;;5083118;28;20035;-70
2021/10/08 05:33:32;;;;;;;4.20;2.58;;;7.40;99.90;;;;;;5080309;28;20036;-73
2021/10/08 05:35:58;;;;;;;4.35;2.50;;;7.40;99.90;;;;;;5079198;28;20032;-74
2021/10/08 05:38:24;;;;;;;3.30;2.55;;;7.40;99.90;;;;;;5069195;28;20025;-73
2021/10/08 05:40:52;;;;;;;4.35;2.67;;;7.40;99.90;;;;;;5074800;28;20040;-73
2021/10/08 05:43:18;;;;;;;5.90;3.30;;;7.40;99.90;;;;;;5085083;28;20020;-72
2021/10/08 05:45:44;;;;;;;5.15;2.88;;;7.40;99.90;;;;;;5083147;28;20106;-72
2021/10/08 05:48:10;;;;;;;4.90;3.05;;;7.40;99.90;;;;;;5084264;28;20041;-72
2021/10/08 05:50:36;;;;;;;7.47;3.22;;;7.30;99.90;;;;;;5084249;28;20031;-72
2021/10/08 05:53:02;;;;;;;5.63;2.97;;;7.30;99.90;;;;;;5084593;28;20053;-72
2021/10/08 05:55:28;;;;;;;4.28;2.45;;;7.30;99.90;;;;;;5084062;28;20068;-72
2021/10/08 05:57:54;;;;;;;6.35;2.90;;;7.30;99.90;;;;;;5072540;28;20032;-75
2021/10/08 06:00:20;;;;;;;4.97;2.45;;;7.30;99.90;;;;;;5080386;28;20115;-72
2021/10/08 06:02:46;;;;;;;6.03;2.72;;;7.30;99.90;;;;;;5081501;28;20025;-72
2021/10/08 06:05:11;;;;;;;4.43;2.53;;;7.30;99.90;;;;;;5083214;28;20606;-73
2021/10/08 06:07:37;;;;;;;11.57;3.13;;;7.30;99.90;;;;;;5079348;28;20388;-72
2021/10/08 06:10:03;;;;;;;5.07;2.85;;;7.30;99.90;;;;;;5074640;28;20048;-72
2021/10/08 06:12:33;;;;;;;6.57;2.40;;;7.30;99.90;;;;;;5072891;28;20085;-72
2021/10/08 06:15:00;;;;;;;5.07;3.10;;;7.30;99.90;;;;;;5063702;28;20039;-73
2021/10/08 06:17:29;;;;;;;5.10;2.45;;;7.40;99.90;;;;;;5063618;28;20091;-72
2021/10/08 06:19:55;;;;;;;5.20;2.80;;;7.40;99.90;;;;;;5064190;28;20058;-73
2021/10/08 06:22:21;;;;;;;4.43;2.55;;;7.50;99.90;;;;;;5063199;28;20489;-72
2021/10/08 06:24:48;;;;;;;6.10;3.20;;;7.50;99.90;;;;;;5063645;28;20021;-72
2021/10/08 06:27:13;;;;;;;7.85;2.45;;;7.50;99.90;;;;;;5062904;28;20035;-72
2021/10/08 06:29:39;;;;;;;5.70;2.92;;;7.50;99.90;;;;;;5063069;28;20039;-72
2021/10/08 06:32:07;;;;;;;5.97;3.20;;;7.60;99.90;;;;;;5068461;28;20021;-72
2021/10/08 06:34:33;;;;;;;9.43;3.03;;;7.60;99.90;;;;;;5066764;28;20095;-72
2021/10/08 06:36:59;;;;;;;5.15;2.88;;;7.70;99.90;;;;;;5079666;28;20024;-71
2021/10/08 06:39:26;;;;;;;5.00;2.95;;;7.70;99.90;;;;;;5070269;28;20024;-72
2021/10/08 06:41:52;;;;;;;6.15;3.42;;;7.80;99.90;;;;;;5078877;28;20456;-72
2021/10/08 06:44:18;;;;;;;4.70;2.85;;;7.80;99.90;;;;;;5078481;28;20025;-72
2021/10/08 06:46:44;;;;;;;7.07;3.30;;;7.90;99.90;;;;;;5067875;28;20032;-72
2021/10/08 06:49:10;;;;;;;6.10;2.88;;;8.00;99.90;;;;;;5067796;28;20036;-71
2021/10/08 06:51:36;;;;;;;5.50;3.30;;;8.10;99.90;;;;;;5067719;28;20477;-72
2021/10/08 06:54:03;;;;;;;5.45;3.50;;;8.20;99.90;;;;;;5071004;28;20063;-72
2021/10/08 06:56:30;;;;;;;7.55;3.35;;;8.20;99.90;;;;;;5079070;28;20043;-72
2021/10/08 06:58:56;;;;;;;3.20;2.63;;;8.40;99.90;;;;;;5085504;28;20092;-72
2021/10/08 07:01:23;;;;;;;7.47;3.83;;;8.40;99.90;;;;;;5081898;28;20035;-72
2021/10/08 07:03:49;;;;;;;8.10;3.10;;;8.50;99.90;;;;;;5083761;28;20078;-72
2021/10/08 07:06:15;;;;;;;5.85;3.08;;;8.70;99.90;;;;;;5086997;28;20037;-73
2021/10/08 07:08:40;;;;;;;6.65;3.33;;;8.70;99.90;;;;;;5081307;28;20025;-72
2021/10/08 07:11:06;;;;;;;5.95;3.08;;;8.80;99.90;;;;;;5082334;28;20056;-73
2021/10/08 07:13:32;;;;;;;6.72;3.65;;;8.90;99.90;;;;;;5080936;28;20052;-73
2021/10/08 07:15:59;;;;;;;5.03;3.13;;;9.00;99.90;;;;;;5087466;28;20028;-73
2021/10/08 07:18:34;;;;;;;10.98;4.03;;;9.10;99.90;;;;;;5087630;28;20024;-74
2021/10/08 07:21:04;;;;;;;7.57;4.20;;;9.20;99.90;;;;;;5082301;28;20186;-73
2021/10/08 07:23:31;;;;;;;6.82;3.28;;;9.30;99.90;;;;;;5085977;28;20419;-73
2021/10/08 07:25:57;;;;;;;7.68;4.20;;;9.50;99.90;;;;;;5071696;28;20060;-73
2021/10/08 07:28:24;;;;;;;6.20;3.22;;;9.60;99.90;;;;;;5067365;28;20028;-73
2021/10/08 07:30:50;;;;;;;4.45;3.15;;;9.80;99.90;;;;;;5082880;28;20048;-73
2021/10/08 07:33:16;;;;;;;6.90;3.70;;;10.00;99.90;;;;;;5086796;28;21093;-72
2021/10/08 07:35:41;;;;;;;6.65;3.30;;;10.20;99.90;;;;;;5077441;28;20032;-73
2021/10/08 07:38:07;;;;;;;7.88;3.20;;;10.50;99.90;;;;;;5067401;28;20025;-72
2021/10/08 07:40:33;;;;;;;6.90;3.83;;;10.70;99.90;;;;;;5066934;28;20017;-73
2021/10/08 07:42:59;;;;;;;6.00;3.05;;;11.00;99.90;;;;;;5065999;28;20029;-73
2021/10/08 07:45:24;;;;;;;9.63;3.72;;;11.20;99.90;;;;;;5067239;28;20029;-74
2021/10/08 07:47:50;;;;;;;8.10;2.92;;;11.40;99.90;;;;;;5065450;28;20036;-73
2021/10/08 07:50:16;;;;;;;5.00;2.80;;;11.70;99.90;;;;;;5067105;28;20096;-73
2021/10/08 07:52:42;;;;;;;7.50;3.22;;;11.80;99.90;;;;;;5066692;28;20025;-72
2021/10/08 07:55:10;;;;;;;5.82;2.90;;;12.00;99.90;;;;;;5065314;28;20045;-73
2021/10/08 07:57:37;;;;;;;7.20;3.08;;;12.20;99.90;;;;;;5065368;28;20068;-73
2021/10/08 08:00:05;;;;;;;5.88;3.33;;;12.20;99.90;;;;;;5063556;28;20111;-73
2021/10/08 08:02:31;;;;;;;6.13;2.97;;;12.30;99.90;;;;;;5064726;28;20021;-73
2021/10/08 08:04:59;;;;;;;5.03;2.78;;;12.30;99.90;;;;;;5064850;28;20392;-74
2021/10/08 08:07:29;;;;;;;20.02;12.90;;;12.40;99.90;;;;;;5067059;28;20037;-76
2021/10/08 08:09:56;;;;;;;5.15;3.25;;;12.50;99.90;;;;;;5072732;28;20098;-74
2021/10/08 08:12:22;;;;;;;5.20;3.28;;;12.60;99.90;;;;;;5077982;28;20488;-74
2021/10/08 08:14:47;;;;;;;4.60;2.20;;;12.60;99.90;;;;;;5083807;28;20063;-73
2021/10/08 08:17:13;;;;;;;4.03;2.22;;;12.60;99.90;;;;;;5079723;28;20075;-73
2021/10/08 08:19:38;;;;;;;4.78;2.83;;;12.60;99.90;;;;;;5074631;28;20033;-74
2021/10/08 08:22:04;;;;;;;3.72;2.33;;;12.60;99.90;;;;;;5070921;28;20032;-75
2021/10/08 08:24:30;;;;;;;5.38;2.67;;;12.60;99.90;;;;;;5082888;28;20530;-71
2021/10/08 08:26:57;;;;;;;6.78;3.38;;;12.60;99.90;;;;;;5084225;28;20067;-75
2021/10/08 08:29:25;;;;;;;4.15;3.00;;;12.70;99.90;;;;;;5073322;28;20451;-74
2021/10/08 08:31:51;;;;;;;4.60;2.33;;;12.70;99.90;;;;;;5065509;28;20562;-74
2021/10/08 08:34:17;;;;;;;7.68;3.58;;;12.80;99.90;;;;;;5077161;28;20045;-75
2021/10/08 08:36:42;;;;;;;8.52;4.07;;;12.80;99.90;;;;;;5065256;28;20898;-74
2021/10/08 08:39:10;;;;;;;4.43;2.60;;;12.80;99.90;;;;;;5068946;28;20037;-74
2021/10/08 08:41:36;;;;;;;8.15;3.47;;;12.90;99.90;;;;;;5083403;28;20028;-75
2021/10/08 08:44:02;;;;;;;9.50;3.65;;;13.10;99.90;;;;;;5065572;28;20737;-74
2021/10/08 08:46:30;;;;;;;9.30;3.30;;;13.20;99.90;;;;;;5063953;28;20033;-75
2021/10/08 08:48:58;;;;;;;7.28;3.75;;;13.30;99.90;;;;;;5065335;28;20079;-74
2021/10/08 08:51:25;;;;;;;6.03;3.08;;;13.30;99.90;;;;;;5065390;28;20033;-75
2021/10/08 08:53:57;;;;;;;9.70;3.20;;;13.50;99.90;;;;;;5062515;28;20041;-74
2021/10/08 08:56:25;;;;;;;4.97;3.15;;;13.60;99.90;;;;;;5064885;28;20405;-75
2021/10/08 08:59:05;;;;;;;8.95;3.03;;;13.70;99.90;;;;;;5065065;28;20040;-74
2021/10/08 09:01:31;;;;;;;7.32;3.53;;;13.80;99.90;;;;;;5064699;28;20036;-76
2021/10/08 09:04:06;;;;;;;5.68;3.08;;;13.80;99.90;;;;;;5064461;28;20020;-75
2021/10/08 09:06:41;;;;;;;8.23;3.10;;;13.90;99.90;;;;;;5062777;28;20374;-75
2021/10/08 09:09:18;;;;;;;4.88;3.25;;;14.00;99.90;;;;;;5063551;28;20035;-74
2021/10/08 09:11:45;;;;;;;5.32;3.00;;;14.10;99.90;;;;;;5064375;28;20485;-74
2021/10/08 09:14:18;;;;;;;5.20;3.30;;;14.20;99.90;;;;;;5063981;28;20057;-74
2021/10/08 09:17:06;;;;;;;5.88;3.42;;;14.20;99.90;;;;;;5063996;28;20179;-74
2021/10/08 09:19:58;;;;;;;5.35;3.42;;;14.30;99.90;;;;;;5063743;28;20116;-74
2021/10/08 09:22:49;;;;;;;5.55;2.97;;;14.40;99.90;;;;;;5063968;28;20024;-75
2021/10/08 09:25:29;;;;;;;3.88;2.80;;;14.60;99.90;;;;;;5063665;28;20093;-75
2021/10/08 09:28:01;;;;;;;5.85;3.03;;;14.70;99.90;;;;;;5063858;28;20025;-75
2021/10/08 09:30:36;;;;;;;5.35;2.72;;;14.80;99.90;;;;;;5063299;28;20017;-74
2021/10/08 09:33:09;;;;;;;5.95;3.42;;;14.90;99.90;;;;;;5062577;28;20033;-74
2021/10/08 09:35:35;;;;;;;4.20;2.75;;;15.00;99.90;;;;;;5063464;28;20052;-74
2021/10/08 09:38:09;;;;;;;3.63;2.60;;;15.20;99.90;;;;;;5063216;28;20044;-73
2021/10/08 09:40:47;;;;;;;15.57;4.53;;;15.20;99.90;;;;;;5063258;28;20047;-74
2021/10/08 09:43:25;;;;;;;7.10;2.72;;;15.30;99.90;;;;;;5063343;28;20100;-73
2021/10/08 09:45:56;;;;;;;7.20;3.75;;;15.30;99.90;;;;;;5063803;28;20048;-73
2021/10/08 09:48:25;;;;;;;6.97;3.60;;;15.50;99.90;;;;;;5063295;28;20029;-73
2021/10/08 09:51:00;;;;;;;6.15;3.15;;;15.60;99.90;;;;;;5063132;28;20097;-74
2021/10/08 09:53:26;;;;;;;7.93;3.40;;;15.70;99.90;;;;;;5063305;28;20029;-75
2021/10/08 09:55:57;;;;;;;7.60;3.55;;;15.80;99.90;;;;;;5063665;28;20087;-73
2021/10/08 09:58:24;;;;;;;6.78;3.15;;;15.90;99.90;;;;;;5072057;28;20025;-75
2021/10/08 10:01:04;;;;;;;4.38;2.70;;;15.90;99.90;;;;;;5073435;28;20048;-73
2021/10/08 10:03:32;;;;;;;4.43;2.88;;;16.00;99.90;;;;;;5063415;28;20044;-74
2021/10/08 10:06:04;;;;;;;6.68;3.63;;;16.20;99.90;;;;;;5060962;28;20032;-74
2021/10/08 10:08:30;;;;;;;6.50;3.50;;;16.20;99.90;;;;;;5063276;28;20024;-74
2021/10/08 10:10:59;;;;;;;7.68;3.25;;;16.30;99.90;;;;;;5062130;28;20039;-73
2021/10/08 10:13:27;;;;;;;14.80;3.63;;;16.40;99.90;;;;;;5062578;28;20060;-73
2021/10/08 10:15:55;;;;;;;7.15;2.58;;;16.60;99.90;;;;;;5063590;28;20044;-73
2021/10/08 10:18:21;;;;;;;8.40;3.30;;;16.70;99.90;;;;;;5063027;28;20025;-73
2021/10/08 10:20:49;;;;;;;5.45;2.90;;;16.80;99.90;;;;;;5062767;28;20087;-74
2021/10/08 10:23:17;;;;;;;4.97;3.10;;;16.90;99.90;;;;;;5062767;28;20409;-73
2021/10/08 10:25:44;;;;;;;7.85;2.90;;;16.90;99.90;;;;;;5067918;28;20499;-73
2021/10/08 10:28:11;;;;;;;2.58;2.15;;;17.00;99.90;;;;;;5072453;28;20029;-72
2021/10/08 10:30:37;;;;;;;5.85;2.47;;;17.20;99.90;;;;;;5077591;28;20031;-73
2021/10/08 10:33:04;;;;;;;6.50;2.25;;;17.20;99.90;;;;;;5065597;28;20115;-73
2021/10/08 10:35:50;;;;;;;6.43;2.15;;;17.20;99.90;;;;;;5067187;28;20029;-75
2021/10/08 10:38:37;;;;;;;7.07;2.58;;;17.30;99.90;;;;;;5077017;28;20036;-75
2021/10/08 10:41:28;;;;;;;3.47;2.08;;;17.40;99.90;;;;;;5082524;28;20044;-74
2021/10/08 10:44:41;;;;;;;5.07;2.75;;;17.60;99.90;;;;;;5081689;28;20024;-75
2021/10/08 10:47:32;;;;;;;5.82;2.42;;;17.70;99.90;;;;;;5075768;28;20472;-74
2021/10/08 10:50:13;;;;;;;3.95;2.20;;;18.00;99.90;;;;;;5081203;28;20056;-75
2021/10/08 10:52:47;;;;;;;2.47;1.60;;;18.20;99.90;;;;;;5081675;28;20454;-72
2021/10/08 10:55:13;;;;;;;4.05;2.28;;;18.30;99.90;;;;;;5083389;28;20033;-72
2021/10/08 10:57:39;;;;;;;6.95;2.45;;;18.50;99.90;;;;;;5083714;28;20115;-72
2021/10/08 11:00:33;;;;;;;3.92;1.70;;;18.60;99.90;;;;;;5083287;28;20122;-72
2021/10/08 11:03:17;;;;;;;2.92;1.77;;;18.70;99.90;;;;;;5078541;28;20691;-72
2021/10/08 11:06:07;;;;;;;8.25;2.38;;;18.90;99.90;;;;;;5077867;28;20029;-73
2021/10/08 11:08:32;;;;;;;5.45;2.58;;;19.00;99.90;;;;;;5082606;28;20079;-74
2021/10/08 11:11:01;;;;;;;2.75;1.80;;;19.10;99.90;;;;;;5081085;28;20020;-73
2021/10/08 11:13:32;;;;;;;3.65;1.75;;;19.20;99.90;;;;;;5072800;28;20053;-74
2021/10/08 11:16:08;;;;;;;3.90;1.98;;;19.40;99.90;;;;;;5069573;28;20033;-74
2021/10/08 11:18:56;;;;;;;11.07;2.47;;;19.50;99.90;;;;;;5070001;28;20043;-74
2021/10/08 11:21:30;;;;;;;6.60;1.88;;;19.70;99.90;;;;;;5066868;28;20052;-75
2021/10/08 11:24:22;;;;;;;5.35;1.88;;;19.80;99.90;;;;;;5066525;28;20369;-74
2021/10/08 11:26:56;;;;;;;5.82;1.92;;;19.90;99.90;;;;;;5066767;28;20443;-73
2021/10/08 11:29:22;;;;;;;5.85;2.03;;;20.00;99.90;;;;;;5066863;28;20021;-72
2021/10/08 11:31:58;;;;;;;3.03;1.67;;;20.10;99.90;;;;;;5066842;28;20067;-73
2021/10/08 11:34:24;;;;;;;4.68;1.60;;;20.30;99.90;;;;;;5067102;28;20059;-73
2021/10/08 11:36:56;;;;;;;1.55;1.08;;;20.30;99.90;;;;;;5066404;28;20085;-75
2021/10/08 11:39:23;;;;;;;2.28;1.10;;;20.50;99.90;;;;;;5066874;28;20025;-73
2021/10/08 11:42:11;;;;;;;2.00;1.45;;;20.70;99.90;;;;;;5082109;28;20079;-72
2021/10/08 11:44:53;;;;;;;3.63;1.83;;;20.90;99.90;;;;;;5066622;28;20029;-72
2021/10/08 11:50:44;;;;;;;6.45;1.92;;;21.40;99.90;;;;;;5061168;28;20082;-72
2021/10/08 11:53:09;;;;;;;3.90;1.50;;;21.60;99.90;;;;;;5066198;28;20025;-75
2021/10/08 11:55:44;;;;;;;3.17;1.75;;;21.90;99.90;;;;;;5066565;28;20033;-74
2021/10/08 11:58:15;;;;;;;4.03;1.77;;;22.00;99.90;;;;;;5065425;28;20028;-73
2021/10/08 12:00:49;;;;;;;4.38;1.60;;;22.30;99.90;;;;;;5071059;28;20021;-74
2021/10/08 12:03:22;;;;;;;3.40;1.48;;;22.50;99.90;;;;;;5076020;28;20036;-73
2021/10/08 12:06:04;;;;;;;3.53;1.77;;;22.80;99.90;;;;;;5083515;28;20037;-71
2021/10/08 12:08:36;;;;;;;4.13;1.50;;;23.10;99.90;;;;;;5077971;28;20021;-71
2021/10/08 12:11:08;;;;;;;1.90;1.40;;;23.20;99.90;;;;;;5075322;28;20020;-72
2021/10/08 12:13:58;;;;;;;3.38;1.80;;;22.90;99.90;;;;;;5082309;28;20104;-72
2021/10/08 12:16:25;;;;;;;3.58;1.65;;;22.60;99.90;;;;;;5073904;28;20036;-73
2021/10/08 12:19:03;;;;;;;5.80;2.00;;;22.40;99.90;;;;;;5080713;28;20062;-72
2021/10/08 12:21:31;;;;;;;5.57;1.83;;;22.30;99.90;;;;;;5078392;28;20056;-73
2021/10/08 12:24:06;;;;;;;6.55;1.50;;;21.90;99.90;;;;;;5076992;28;20500;-73
2021/10/08 12:26:35;;;;;;;3.03;1.40;;;21.70;99.90;;;;;;5081209;28;20431;-73
2021/10/08 12:29:07;;;;;;;2.42;1.23;;;21.80;99.90;;;;;;5075743;28;20074;-73
2021/10/08 12:31:44;;;;;;;3.20;1.40;;;21.90;99.90;;;;;;5074010;28;20049;-74
2021/10/08 12:34:11;;;;;;;3.58;1.52;;;22.00;99.90;;;;;;5063636;28;20036;-73
2021/10/08 12:36:37;;;;;;;4.05;1.20;;;22.10;99.90;;;;;;5070354;28;20036;-73
2021/10/08 12:39:09;;;;;;;4.13;1.20;;;22.20;99.90;;;;;;5081046;28;20025;-73
2021/10/08 12:41:57;;;;;;;4.82;1.75;;;22.00;99.90;;;;;;5064695;28;20048;-72
2021/10/08 12:44:25;;;;;;;2.42;1.42;;;21.70;99.90;;;;;;5065627;28;20021;-71
2021/10/08 12:47:12;;;;;;;2.88;1.65;;;21.30;99.90;;;;;;5065384;28;20322;-71
2021/10/08 12:49:49;;;;;;;2.88;1.48;;;20.90;99.90;;;;;;5063700;28;20036;-72
2021/10/08 12:52:29;;;;;;;4.20;1.83;;;20.80;99.90;;;;;;5064071;28;20029;-72
2021/10/08 12:55:08;;;;;;;4.25;2.13;;;20.70;99.90;;;;;;5065429;28;20537;-73
2021/10/08 12:57:34;;;;;;;3.25;1.52;;;21.10;99.90;;;;;;5064728;28;20028;-72
2021/10/08 13:00:00;;;;;;;1.60;0.90;;;21.50;99.90;;;;;;5064302;28;20063;-73